Time;durP1;ratioP1;P1;durP2;ratioP2;P2;SDS_P1;SDS_P2;PMS_P1;PMS_P2;Temp;Humidity;BMP_temperature;BMP_pressure;BME280_temperature;BME280_humidity;BME280_pressure;Samples;Min_cycle;Max_cycle;Signal;HPM_P1;HPM_P2
2024/02/08 00:00:59;;;;;;;12.48;7.53;;;24.30;99.90;;;;;;4936968;29;20075;-60
2024/02/08 00:03:25;;;;;;;11.95;6.70;;;24.30;99.90;;;;;;4936990;29;20087;-60
2024/02/08 00:05:50;;;;;;;12.75;6.55;;;24.30;99.90;;;;;;4936535;29;20019;-60
2024/02/08 00:08:16;;;;;;;13.43;6.95;;;24.30;99.90;;;;;;4936946;29;20063;-60
2024/02/08 00:10:42;;;;;;;9.85;6.40;;;24.20;99.90;;;;;;4920284;29;20059;-60
2024/02/08 00:13:08;;;;;;;12.18;6.70;;;24.20;99.90;;;;;;4936804;29;20031;-60
2024/02/08 00:15:34;;;;;;;13.88;7.72;;;24.20;99.90;;;;;;4938931;29;20028;-61
2024/02/08 00:18:00;;;;;;;10.80;7.00;;;24.20;99.90;;;;;;4920172;29;20023;-61
2024/02/08 00:20:26;;;;;;;16.92;7.15;;;24.20;99.90;;;;;;4936511;29;20129;-61
2024/02/08 00:22:54;;;;;;;15.98;7.25;;;24.20;99.90;;;;;;4936627;29;20110;-61
2024/02/08 00:25:23;;;;;;;15.93;7.60;;;24.20;99.90;;;;;;4936742;29;20023;-62
2024/02/08 00:27:49;;;;;;;11.50;6.40;;;24.20;99.90;;;;;;4935860;29;20091;-62
2024/02/08 00:30:18;;;;;;;11.00;6.28;;;24.20;99.90;;;;;;4936466;29;20055;-61
2024/02/08 00:32:48;;;;;;;11.77;7.03;;;24.20;99.90;;;;;;4936509;29;20381;-65
2024/02/08 00:35:18;;;;;;;14.77;6.65;;;24.20;99.90;;;;;;4936824;29;20380;-64
2024/02/08 00:37:48;;;;;;;13.65;7.20;;;24.20;99.90;;;;;;4924041;29;20016;-63
2024/02/08 00:40:15;;;;;;;15.57;7.07;;;24.10;99.90;;;;;;4936648;29;20019;-65
2024/02/08 00:42:42;;;;;;;13.68;7.07;;;24.10;99.90;;;;;;4936765;29;20099;-62
2024/02/08 00:45:09;;;;;;;13.18;6.03;;;24.10;99.90;;;;;;4935811;29;20039;-61
2024/02/08 00:47:35;;;;;;;;;;;24.10;99.90;;;;;;4936863;29;20035;-60
2024/02/08 00:50:01;;;;;;;12.45;6.93;;;24.10;99.90;;;;;;4936135;29;19914;-59
2024/02/08 00:52:26;;;;;;;12.15;6.80;;;24.20;99.90;;;;;;4936006;29;20039;-62
2024/02/08 00:54:52;;;;;;;18.52;6.75;;;24.10;99.90;;;;;;4919290;29;20110;-60
2024/02/08 00:57:18;;;;;;;12.45;6.30;;;24.10;99.90;;;;;;4919323;29;20059;-62
2024/02/08 00:59:43;;;;;;;17.58;6.28;;;24.10;99.90;;;;;;4918955;29;20024;-61
2024/02/08 01:02:09;;;;;;;12.35;7.15;;;24.10;99.90;;;;;;4936539;29;20055;-62
2024/02/08 01:04:35;;;;;;;11.18;6.22;;;24.10;99.90;;;;;;4935623;29;20036;-62
2024/02/08 01:07:02;;;;;;;12.20;6.85;;;24.10;99.90;;;;;;4935869;29;20020;-63
2024/02/08 01:09:28;;;;;;;11.68;6.63;;;24.10;99.90;;;;;;4935917;29;20511;-69
2024/02/08 01:11:54;;;;;;;13.32;6.95;;;24.10;99.90;;;;;;4918818;29;20055;-64
2024/02/08 01:14:21;;;;;;;17.05;6.82;;;24.10;99.90;;;;;;4918539;29;20103;-61
2024/02/08 01:16:54;;;;;;;15.55;6.78;;;24.00;99.90;;;;;;4935476;29;20111;-69
2024/02/08 01:19:23;;;;;;;13.00;6.22;;;24.00;99.90;;;;;;4918899;29;20031;-73
2024/02/08 01:21:52;;;;;;;11.90;6.13;;;24.00;99.90;;;;;;4935667;29;20027;-73
2024/02/08 01:24:21;;;;;;;17.50;6.57;;;24.00;99.90;;;;;;4935452;29;20437;-71
2024/02/08 01:26:48;;;;;;;9.18;5.50;;;24.00;99.90;;;;;;4918396;29;20031;-60
2024/02/08 01:29:15;;;;;;;11.63;5.70;;;24.00;99.90;;;;;;4935357;29;20473;-60
2024/02/08 01:31:41;;;;;;;8.75;5.80;;;24.00;99.90;;;;;;4918212;29;20066;-60
2024/02/08 01:34:08;;;;;;;10.45;5.50;;;24.00;99.90;;;;;;4905990;29;20087;-60
2024/02/08 01:36:41;;;;;;;9.97;6.20;;;24.00;99.90;;;;;;4935188;29;20034;-66
2024/02/08 01:39:12;;;;;;;12.38;5.70;;;23.90;99.90;;;;;;4933993;29;20086;-61
2024/02/08 01:41:42;;;;;;;11.50;4.90;;;23.90;99.90;;;;;;4934021;29;20028;-58
2024/02/08 01:44:08;;;;;;;12.43;6.05;;;23.90;99.90;;;;;;4934681;29;20130;-60
2024/02/08 01:46:38;;;;;;;8.15;5.15;;;23.90;99.90;;;;;;4933560;29;20404;-60
2024/02/08 01:49:27;;;;;;;13.52;5.53;;;23.90;99.90;;;;;;4934070;29;20030;-60
2024/02/08 01:52:00;;;;;;;11.15;5.43;;;23.90;99.90;;;;;;4925220;29;20024;-57
2024/02/08 01:54:29;;;;;;;10.95;6.35;;;23.90;99.90;;;;;;4935006;29;20032;-58
2024/02/08 01:56:58;;;;;;;13.63;6.03;;;23.80;99.90;;;;;;4935405;29;20509;-61
2024/02/08 01:59:26;;;;;;;12.38;6.40;;;23.90;99.90;;;;;;4934891;29;20082;-60
2024/02/08 02:01:56;;;;;;;11.05;5.75;;;23.90;99.90;;;;;;4935251;29;20066;-61
2024/02/08 02:04:22;;;;;;;11.00;5.78;;;23.80;99.90;;;;;;4933544;29;20171;-63
2024/02/08 02:06:48;;;;;;;12.47;5.77;;;23.80;99.90;;;;;;4935037;29;20024;-62
2024/02/08 02:09:24;;;;;;;12.38;4.78;;;23.80;99.90;;;;;;4935010;29;20027;-62
2024/02/08 02:12:15;;;;;;;9.40;5.35;;;23.80;99.90;;;;;;4934667;29;20547;-60
2024/02/08 02:14:41;;;;;;;8.18;4.85;;;23.80;99.90;;;;;;4934790;29;20059;-63
2024/02/08 02:17:26;;;;;;;10.50;5.55;;;23.80;99.90;;;;;;4917434;29;20102;-64
2024/02/08 02:19:52;;;;;;;9.45;5.32;;;23.80;99.90;;;;;;4934902;29;20031;-61
2024/02/08 02:22:20;;;;;;;7.90;5.43;;;23.80;99.90;;;;;;4917765;29;20032;-64
2024/02/08 02:24:49;;;;;;;11.07;4.97;;;23.70;99.90;;;;;;4934478;29;20043;-63
2024/02/08 02:27:15;;;;;;;10.88;5.07;;;23.70;99.90;;;;;;4934901;29;20090;-59
2024/02/08 02:29:44;;;;;;;10.85;5.57;;;23.70;99.90;;;;;;4934296;29;20019;-57
2024/02/08 02:32:20;;;;;;;9.93;5.55;;;23.70;99.90;;;;;;4934705;29;20045;-60
2024/02/08 02:34:50;;;;;;;11.20;5.63;;;23.70;99.90;;;;;;4934801;29;20105;-63
2024/02/08 02:37:16;;;;;;;11.23;5.30;;;23.70;99.90;;;;;;4934968;29;20262;-62
2024/02/08 02:39:42;;;;;;;9.40;5.07;;;23.70;99.90;;;;;;4934362;29;20023;-63
2024/02/08 02:42:08;;;;;;;11.70;5.18;;;23.70;99.90;;;;;;4934629;29;20028;-61
2024/02/08 02:44:34;;;;;;;10.35;4.80;;;23.70;99.90;;;;;;4934223;29;20032;-56
2024/02/08 02:47:03;;;;;;;9.50;5.05;;;23.60;99.90;;;;;;4934517;29;20093;-59
2024/02/08 02:49:29;;;;;;;8.63;4.53;;;23.70;99.90;;;;;;4934442;29;20437;-61
2024/02/08 02:51:59;;;;;;;12.07;5.15;;;23.70;99.90;;;;;;4937768;29;20110;-65
2024/02/08 02:54:30;;;;;;;8.82;4.72;;;23.70;99.90;;;;;;4921573;29;20046;-62
2024/02/08 02:56:56;;;;;;;10.25;4.93;;;23.60;99.90;;;;;;4938091;29;20079;-62
2024/02/08 02:59:26;;;;;;;12.55;5.43;;;23.60;99.90;;;;;;4938358;29;20020;-63
2024/02/08 03:01:55;;;;;;;12.48;4.55;;;23.60;99.90;;;;;;4938690;29;20440;-62
2024/02/08 03:04:22;;;;;;;9.18;5.07;;;23.60;99.90;;;;;;4936035;29;20035;-60
2024/02/08 03:06:53;;;;;;;8.13;4.13;;;23.60;99.90;;;;;;4937121;29;20023;-62
2024/02/08 03:09:23;;;;;;;7.88;4.13;;;23.60;99.90;;;;;;4937100;29;20047;-60
2024/02/08 03:11:49;;;;;;;8.98;4.72;;;23.60;99.90;;;;;;4937561;29;20035;-58
2024/02/08 03:14:15;;;;;;;9.00;5.03;;;23.50;99.90;;;;;;4938136;29;20031;-61
2024/02/08 03:16:42;;;;;;;10.98;4.38;;;23.50;99.90;;;;;;4937733;29;20417;-61
2024/02/08 03:19:08;;;;;;;10.13;4.30;;;23.50;99.90;;;;;;4937449;29;20042;-60
2024/02/08 03:21:40;;;;;;;7.72;4.07;;;23.50;99.90;;;;;;4937263;29;20023;-59
2024/02/08 03:24:09;;;;;;;8.73;4.05;;;23.50;99.90;;;;;;4937555;29;20404;-60
2024/02/08 03:26:46;;;;;;;11.35;5.70;;;23.50;99.90;;;;;;4919974;29;20031;-61
2024/02/08 03:29:13;;;;;;;;;;;23.50;99.90;;;;;;4922873;29;20389;-63
2024/02/08 03:31:45;;;;;;;8.48;4.43;;;23.40;99.90;;;;;;4936957;29;19918;-60
2024/02/08 03:34:16;;;;;;;10.50;4.18;;;23.40;99.90;;;;;;4936562;29;20075;-61
2024/02/08 03:36:44;;;;;;;11.13;5.35;;;23.40;99.90;;;;;;4920000;29;20032;-62
2024/02/08 03:39:20;;;;;;;8.05;4.00;;;23.40;99.90;;;;;;4935131;29;20020;-62
2024/02/08 03:41:46;;;;;;;8.80;4.53;;;23.40;99.90;;;;;;4935704;29;20198;-64
2024/02/08 03:44:12;;;;;;;8.20;3.90;;;23.40;99.90;;;;;;4936416;29;20130;-63
2024/02/08 03:46:38;;;;;;;7.97;3.83;;;23.40;99.90;;;;;;4936884;29;20016;-61
2024/02/08 03:49:08;;;;;;;6.20;4.00;;;23.30;99.90;;;;;;4937367;29;20339;-62
2024/02/08 03:51:37;;;;;;;7.18;3.90;;;23.30;99.90;;;;;;4919647;29;20020;-62
2024/02/08 03:54:03;;;;;;;8.23;4.35;;;23.30;99.90;;;;;;4936666;29;20023;-61
2024/02/08 03:56:36;;;;;;;9.35;4.50;;;23.30;99.90;;;;;;4936135;29;20483;-60
2024/02/08 03:59:07;;;;;;;7.43;3.50;;;23.30;99.90;;;;;;4934852;29;20028;-61
2024/02/08 04:01:35;;;;;;;6.88;3.63;;;23.20;99.90;;;;;;4933798;29;20448;-61
2024/02/08 04:04:12;;;;;;;;;;;23.20;99.90;;;;;;4936176;29;20087;-61
2024/02/08 04:07:14;;;;;;;8.90;3.85;;;23.20;99.90;;;;;;4936633;29;20331;-60
2024/02/08 04:09:34;;;;;;;6.25;4.15;;;23.20;99.90;;;;;;4926512;29;20028;-65
2024/02/08 04:55:57;;;;;;;7.82;4.13;;;22.90;99.90;;;;;;4935904;29;20094;-62
2024/02/08 04:58:23;;;;;;;10.25;4.03;;;22.90;99.90;;;;;;4935371;29;20028;-61
2024/02/08 05:00:49;;;;;;;9.75;3.55;;;22.90;99.90;;;;;;4935943;29;20051;-63
2024/02/08 05:03:17;;;;;;;8.55;3.78;;;22.90;99.90;;;;;;4935569;29;20024;-60
2024/02/08 05:05:46;;;;;;;9.75;3.70;;;22.90;99.90;;;;;;4935489;29;20120;-60
2024/02/08 05:08:12;;;;;;;9.13;3.58;;;22.90;99.90;;;;;;4935392;29;20027;-61
2024/02/08 05:10:38;;;;;;;6.07;3.38;;;22.90;99.90;;;;;;4935547;29;20488;-62
2024/02/08 05:13:04;;;;;;;6.75;3.63;;;22.80;99.90;;;;;;4935969;29;20038;-60
2024/02/08 05:15:33;;;;;;;8.07;4.15;;;22.80;99.90;;;;;;4936057;29;20035;-61
2024/02/08 05:17:59;;;;;;;8.02;3.40;;;22.80;99.90;;;;;;4935967;29;20028;-62
2024/02/08 05:20:25;;;;;;;7.32;3.78;;;22.80;99.90;;;;;;4936115;29;20086;-62
2024/02/08 05:22:51;;;;;;;8.02;4.13;;;22.80;99.90;;;;;;4936236;29;20034;-62
2024/02/08 05:25:21;;;;;;;9.13;3.72;;;22.80;99.90;;;;;;4935880;29;20039;-62
2024/02/08 05:27:47;;;;;;;7.22;3.60;;;22.80;99.90;;;;;;4935951;29;20488;-62
2024/02/08 05:30:19;;;;;;;7.28;3.65;;;22.80;99.90;;;;;;4919086;29;20031;-62
2024/02/08 05:32:46;;;;;;;6.13;3.28;;;22.80;99.90;;;;;;4935918;29;20718;-61
2024/02/08 05:35:13;;;;;;;6.97;3.67;;;22.80;99.90;;;;;;4935837;29;20079;-63
2024/02/08 05:37:39;;;;;;;9.18;3.42;;;22.80;99.90;;;;;;4935715;29;20019;-61
2024/02/08 05:40:06;;;;;;;7.65;3.47;;;22.70;99.90;;;;;;4935760;29;20038;-61
2024/02/08 05:42:36;;;;;;;7.50;3.88;;;22.70;99.90;;;;;;4935657;29;20472;-61
2024/02/08 05:45:19;;;;;;;9.63;3.55;;;22.70;99.90;;;;;;4935547;29;20059;-65
2024/02/08 05:47:48;;;;;;;9.68;3.65;;;22.70;99.90;;;;;;4934370;29;20436;-61
2024/02/08 05:50:24;;;;;;;10.25;4.03;;;22.70;99.90;;;;;;4935667;29;20491;-61
2024/02/08 05:52:57;;;;;;;6.88;3.50;;;22.70;99.90;;;;;;4935449;29;20078;-61
2024/02/08 05:55:26;;;;;;;12.05;4.45;;;22.70;99.90;;;;;;4918629;29;20028;-61
2024/02/08 05:57:53;;;;;;;8.82;3.72;;;22.70;99.90;;;;;;4935675;29;20087;-61
2024/02/08 06:00:45;;;;;;;8.75;4.05;;;22.60;99.90;;;;;;4917344;29;20024;-61
2024/02/08 06:03:17;;;;;;;5.78;3.30;;;22.60;99.90;;;;;;4914270;29;20044;-61
2024/02/08 06:05:49;;;;;;;7.00;3.78;;;22.60;99.90;;;;;;4934822;29;20110;-61
2024/02/08 06:08:25;;;;;;;5.70;3.53;;;22.60;99.90;;;;;;4935212;29;20472;-61
2024/02/08 06:10:52;;;;;;;5.78;3.17;;;22.60;99.90;;;;;;4935513;29;20420;-62
2024/02/08 06:13:22;;;;;;;7.80;3.70;;;22.60;99.90;;;;;;4935348;29;20023;-62
2024/02/08 06:15:50;;;;;;;5.57;3.22;;;22.60;99.90;;;;;;4934393;29;20043;-63
2024/02/08 06:18:24;;;;;;;6.85;3.60;;;22.60;99.90;;;;;;4935134;29;20042;-62
2024/02/08 06:21:12;;;;;;;5.95;3.30;;;22.60;99.90;;;;;;4935095;29;20035;-64
2024/02/08 06:23:43;;;;;;;6.55;3.88;;;22.60;99.90;;;;;;4917907;29;20040;-63
2024/02/08 06:28:48;;;;;;;5.60;3.17;;;22.50;99.90;;;;;;4934962;29;20046;-63
2024/02/08 06:31:20;;;;;;;7.88;4.00;;;22.50;99.90;;;;;;4935058;29;20106;-63
2024/02/08 06:36:34;;;;;;;6.32;3.63;;;22.50;99.90;;;;;;4934969;29;20388;-61
2024/02/08 06:39:20;;;;;;;8.70;3.58;;;22.50;99.90;;;;;;4935098;29;20550;-61
2024/02/08 06:41:52;;;;;;;5.47;3.47;;;22.50;99.90;;;;;;4934919;29;20028;-62
2024/02/08 07:39:30;;;;;;;8.82;3.63;;;22.30;99.90;;;;;;4937764;29;20091;-63
2024/02/08 07:41:56;;;;;;;5.65;2.80;;;22.30;99.90;;;;;;4937913;29;20020;-61
2024/02/08 07:44:30;;;;;;;9.50;3.42;;;22.30;99.90;;;;;;4937751;29;20503;-62
2024/02/08 07:46:56;;;;;;;7.63;3.70;;;22.30;99.90;;;;;;4921521;29;20484;-62
2024/02/08 07:49:42;;;;;;;7.43;3.08;;;22.30;99.90;;;;;;4937767;29;20476;-64
2024/02/08 07:52:22;;;;;;;7.97;3.78;;;22.30;99.90;;;;;;4937887;29;20027;-63
2024/02/08 07:54:56;;;;;;;6.85;3.53;;;22.30;99.90;;;;;;4937583;29;20106;-64
2024/02/08 07:57:26;;;;;;;9.63;4.28;;;22.30;99.90;;;;;;4937576;29;20019;-64
2024/02/08 07:59:53;;;;;;;6.78;3.38;;;22.40;99.90;;;;;;4937505;29;20039;-63
2024/02/08 08:02:23;;;;;;;9.50;3.38;;;22.40;99.90;;;;;;4937214;29;20043;-63
2024/02/08 08:04:52;;;;;;;10.55;3.78;;;22.30;99.90;;;;;;4937359;29;20036;-62
2024/02/08 08:07:28;;;;;;;7.60;3.33;;;22.30;99.90;;;;;;4937442;29;20030;-62
2024/02/08 08:09:59;;;;;;;8.75;3.58;;;22.30;99.90;;;;;;4937207;29;20123;-62
2024/02/08 08:12:30;;;;;;;8.82;4.35;;;22.30;99.90;;;;;;4920104;29;20024;-62
2024/02/08 08:15:22;;;;;;;8.23;3.50;;;22.40;99.90;;;;;;4937326;29;20355;-61
2024/02/08 08:17:59;;;;;;;7.15;3.50;;;22.40;99.90;;;;;;4936580;29;20031;-63
2024/02/08 08:23:25;;;;;;;5.78;3.80;;;22.40;99.90;;;;;;4936969;29;20511;-64
2024/02/08 08:26:23;;;;;;;7.43;4.25;;;22.40;99.90;;;;;;4937131;29;20043;-63
2024/02/08 08:28:51;;;;;;;8.25;4.18;;;22.40;99.90;;;;;;4936751;29;20039;-63
2024/02/08 08:31:46;;;;;;;8.30;4.10;;;22.40;99.90;;;;;;4919834;29;20486;-63
2024/02/08 08:42:39;;;;;;;8.70;3.97;;;22.40;99.90;;;;;;4937126;29;20405;-62
2024/02/08 08:45:09;;;;;;;13.25;4.30;;;22.40;99.90;;;;;;4936956;29;20043;-63
2024/02/08 08:47:37;;;;;;;6.82;4.45;;;22.50;99.90;;;;;;4936648;29;20425;-63
2024/02/08 08:50:17;;;;;;;8.13;3.35;;;22.40;99.90;;;;;;4936448;29;20028;-63
2024/02/08 08:52:47;;;;;;;10.15;4.40;;;22.50;99.90;;;;;;4936567;29;20477;-62
2024/02/08 08:55:20;;;;;;;7.05;4.20;;;22.50;99.90;;;;;;4936439;29;20056;-64
2024/02/08 08:58:00;;;;;;;10.73;4.93;;;22.50;99.90;;;;;;4936435;29;20124;-65
2024/02/08 09:00:36;;;;;;;8.68;4.40;;;22.50;99.90;;;;;;4936102;29;20517;-62
2024/02/08 09:03:10;;;;;;;8.95;3.55;;;22.50;99.90;;;;;;4936355;29;20035;-62
2024/02/08 09:05:36;;;;;;;7.50;4.55;;;22.50;99.90;;;;;;4936612;29;20342;-63
2024/02/08 09:08:21;;;;;;;9.48;3.90;;;22.50;99.90;;;;;;4936127;29;20023;-64
2024/02/08 09:10:49;;;;;;;5.50;4.00;;;22.60;99.90;;;;;;4936224;29;20545;-64
2024/02/08 09:13:18;;;;;;;13.02;4.63;;;22.60;99.90;;;;;;4936088;29;20024;-63
2024/02/08 09:16:29;;;;;;;10.82;4.85;;;22.60;99.90;;;;;;4919781;29;20036;-62
2024/02/08 09:21:32;;;;;;;9.77;4.68;;;22.60;99.90;;;;;;4935926;29;20028;-64
2024/02/08 09:24:03;;;;;;;10.95;4.10;;;22.70;99.90;;;;;;4935928;29;20027;-63
2024/02/08 09:26:48;;;;;;;9.15;4.20;;;22.70;99.90;;;;;;4935972;29;20384;-63
2024/02/08 09:29:23;;;;;;;10.13;4.07;;;22.70;99.90;;;;;;4935890;29;20047;-63
2024/02/08 09:31:56;;;;;;;7.00;3.63;;;22.70;99.90;;;;;;4935732;29;20024;-63
2024/02/08 09:34:46;;;;;;;8.55;3.85;;;22.70;99.90;;;;;;4935893;29;20062;-63
2024/02/08 09:37:13;;;;;;;14.32;4.40;;;22.70;99.90;;;;;;4935826;29;20103;-63
2024/02/08 09:42:29;;;;;;;11.40;4.15;;;22.70;99.90;;;;;;4935569;29;20020;-63
2024/02/08 09:45:44;;;;;;;8.15;4.13;;;22.70;99.90;;;;;;4918496;29;20039;-62
2024/02/08 09:47:52;;;;;;;9.18;4.43;;;22.70;99.90;;;;;;4922298;29;20122;-61
2024/02/08 09:50:35;;;;;;;8.50;4.18;;;22.70;99.90;;;;;;4935584;29;20028;-61
2024/02/08 09:53:17;;;;;;;10.32;3.72;;;22.70;99.90;;;;;;4935565;29;20047;-62
2024/02/08 09:55:58;;;;;;;10.60;4.72;;;22.80;99.90;;;;;;4935520;29;20023;-62
2024/02/08 09:58:34;;;;;;;7.13;4.15;;;22.70;99.90;;;;;;4935667;29;20437;-63
2024/02/08 10:01:21;;;;;;;9.27;4.50;;;22.70;99.90;;;;;;4934402;29;20055;-62
2024/02/08 10:03:48;;;;;;;13.10;4.78;;;22.70;99.90;;;;;;4935305;29;20399;-63
2024/02/08 10:06:24;;;;;;;10.10;3.75;;;22.80;99.90;;;;;;4935457;29;20035;-64
2024/02/08 10:09:08;;;;;;;9.32;4.75;;;22.80;99.90;;;;;;4935289;29;20091;-63
2024/02/08 10:11:36;;;;;;;10.60;4.40;;;22.70;99.90;;;;;;4935178;29;20531;-63
2024/02/08 10:14:06;;;;;;;9.20;3.97;;;22.80;99.90;;;;;;4935141;29;20024;-63
2024/02/08 10:16:43;;;;;;;9.60;4.00;;;22.80;99.90;;;;;;4935268;29;20024;-64
2024/02/08 10:19:35;;;;;;;;;;;22.80;99.90;;;;;;4935740;29;20031;-61
2024/02/08 10:22:26;;;;;;;6.55;3.83;;;22.80;99.90;;;;;;4933810;29;20275;-61
2024/02/08 10:27:19;;;;;;;9.57;4.40;;;22.80;99.90;;;;;;4935045;29;20024;-63
2024/02/08 10:29:52;;;;;;;8.75;3.60;;;22.80;99.90;;;;;;4935115;29;20103;-63
2024/02/08 10:32:18;;;;;;;5.53;3.75;;;22.80;99.90;;;;;;4934950;29;20016;-62
2024/02/08 10:34:45;;;;;;;9.55;3.80;;;22.80;99.90;;;;;;4935202;29;20461;-64
2024/02/08 10:37:46;;;;;;;9.27;4.32;;;22.80;99.90;;;;;;4935296;29;20024;-63
2024/02/08 10:39:59;;;;;;;;;;;22.80;99.90;;;;;;4921400;29;20437;-64
2024/02/08 10:42:29;;;;;;;6.70;3.67;;;22.90;99.90;;;;;;4935150;29;19914;-64
2024/02/08 10:45:05;;;;;;;8.27;3.65;;;22.90;99.90;;;;;;4934815;29;20446;-63
2024/02/08 10:47:39;;;;;;;6.97;3.75;;;23.00;99.90;;;;;;4934877;29;20019;-63
2024/02/08 10:50:19;;;;;;;7.70;4.70;;;23.00;99.90;;;;;;4934761;29;20075;-64
2024/02/08 10:52:48;;;;;;;8.43;3.80;;;23.00;99.90;;;;;;4934982;29;20552;-64
2024/02/08 10:55:20;;;;;;;7.75;3.72;;;23.00;99.90;;;;;;4934835;29;20120;-64
2024/02/08 11:03:33;;;;;;;9.68;4.80;;;23.20;99.90;;;;;;4934619;29;20505;-61
2024/02/08 11:06:03;;;;;;;7.75;3.83;;;23.20;99.90;;;;;;4934824;29;20043;-62
2024/02/08 11:08:50;;;;;;;10.20;3.95;;;23.20;99.90;;;;;;4934893;29;20020;-61
2024/02/08 11:11:20;;;;;;;5.47;3.77;;;23.20;99.90;;;;;;4935489;29;20082;-63
2024/02/08 11:13:53;;;;;;;9.45;4.68;;;23.30;99.90;;;;;;4938624;29;20035;-63
2024/02/08 11:16:33;;;;;;;10.13;4.60;;;23.30;99.90;;;;;;4938229;29;20110;-63
2024/02/08 11:19:04;;;;;;;5.43;3.80;;;23.30;99.90;;;;;;4921826;29;20193;-63
2024/02/08 11:21:51;;;;;;;11.05;4.88;;;23.30;99.90;;;;;;4938227;29;20020;-63
2024/02/08 11:24:38;;;;;;;7.38;4.10;;;23.30;99.90;;;;;;4937649;29;20058;-61
2024/02/08 11:27:04;;;;;;;9.60;4.22;;;23.30;99.90;;;;;;4938008;29;20027;-61
2024/02/08 11:29:42;;;;;;;7.10;4.13;;;23.30;99.90;;;;;;4937893;29;20034;-63
2024/02/08 11:32:17;;;;;;;10.10;3.78;;;23.20;99.90;;;;;;4937942;29;20035;-61
2024/02/08 11:34:46;;;;;;;12.32;4.13;;;23.20;99.90;;;;;;4937868;29;20031;-62
2024/02/08 11:37:17;;;;;;;10.18;4.18;;;23.20;99.90;;;;;;4937853;29;20031;-63
2024/02/08 11:39:46;;;;;;;10.32;4.00;;;23.20;99.90;;;;;;4937830;29;20028;-62
2024/02/08 11:42:16;;;;;;;8.75;3.90;;;23.20;99.90;;;;;;4937783;29;20032;-61
2024/02/08 11:44:43;;;;;;;8.13;3.90;;;23.20;99.90;;;;;;4937759;29;20130;-63
2024/02/08 11:47:19;;;;;;;17.30;4.72;;;23.20;99.90;;;;;;4937653;29;20047;-64
2024/02/08 11:49:52;;;;;;;8.80;4.30;;;23.20;99.90;;;;;;4937837;29;20032;-62
2024/02/08 11:52:19;;;;;;;12.20;4.18;;;23.10;99.90;;;;;;4920781;29;20039;-64
2024/02/08 11:54:58;;;;;;;9.90;3.90;;;23.10;99.90;;;;;;4937993;29;20087;-61
2024/02/08 11:57:26;;;;;;;8.15;4.10;;;23.10;99.90;;;;;;4937616;29;20379;-62
2024/02/08 11:59:55;;;;;;;;;;;23.10;99.90;;;;;;4938189;29;20118;-59
2024/02/08 12:02:21;;;;;;;14.15;4.20;;;23.10;99.90;;;;;;4937476;29;19973;-60
2024/02/08 12:04:52;;;;;;;8.45;4.88;;;23.10;99.90;;;;;;4937573;29;20080;-60
2024/02/08 12:07:20;;;;;;;11.05;3.85;;;23.10;99.90;;;;;;4937387;29;20476;-60
2024/02/08 12:09:56;;;;;;;10.40;3.88;;;23.10;99.90;;;;;;4937242;29;20032;-62
2024/02/08 12:12:25;;;;;;;9.50;3.60;;;23.10;99.90;;;;;;4937139;29;20032;-60
2024/02/08 12:14:54;;;;;;;9.15;3.75;;;23.00;99.90;;;;;;4937499;29;20111;-62
2024/02/08 12:17:22;;;;;;;8.27;3.95;;;23.00;99.90;;;;;;4937494;29;20055;-63
2024/02/08 12:19:48;;;;;;;8.68;3.92;;;23.00;99.90;;;;;;4937132;29;20058;-60
2024/02/08 12:22:14;;;;;;;7.93;4.05;;;23.00;99.90;;;;;;4936936;29;20055;-60
2024/02/08 12:24:41;;;;;;;7.97;3.83;;;23.00;99.90;;;;;;4936258;29;20035;-62
2024/02/08 12:27:25;;;;;;;7.07;4.38;;;23.00;99.90;;;;;;4919877;29;20118;-62
2024/02/08 12:29:56;;;;;;;7.97;3.67;;;23.00;99.90;;;;;;4937268;29;20060;-62
2024/02/08 12:32:27;;;;;;;7.32;3.85;;;23.00;99.90;;;;;;4937257;29;20028;-61
2024/02/08 12:34:54;;;;;;;11.05;4.22;;;23.00;99.90;;;;;;4936914;29;20028;-61
2024/02/08 12:37:29;;;;;;;6.65;3.53;;;23.00;99.90;;;;;;4937044;29;20062;-61
2024/02/08 12:39:56;;;;;;;8.60;3.97;;;23.00;99.90;;;;;;4939841;29;20027;-61
2024/02/08 12:42:25;;;;;;;14.95;3.90;;;23.00;99.90;;;;;;4937002;29;20552;-63
2024/02/08 12:44:51;;;;;;;9.30;4.15;;;23.00;99.90;;;;;;4936780;29;20044;-62
2024/02/08 12:47:18;;;;;;;12.27;4.57;;;23.00;99.90;;;;;;4936638;29;20103;-64
2024/02/08 12:49:47;;;;;;;12.68;4.22;;;23.00;99.90;;;;;;4935810;29;20323;-63
2024/02/08 12:52:15;;;;;;;10.27;4.45;;;23.00;99.90;;;;;;4933775;29;20020;-62
2024/02/08 12:54:42;;;;;;;11.80;4.25;;;23.00;99.90;;;;;;4936194;29;20393;-62
2024/02/08 12:57:10;;;;;;;9.70;4.03;;;23.00;99.90;;;;;;4935862;29;20034;-62
2024/02/08 12:59:41;;;;;;;11.52;4.82;;;23.00;99.90;;;;;;4935976;29;20019;-61
2024/02/08 13:02:18;;;;;;;7.10;4.07;;;23.00;99.90;;;;;;4915485;29;20066;-63
2024/02/08 13:04:46;;;;;;;9.25;4.00;;;23.00;99.90;;;;;;4916821;29;20054;-61
2024/02/08 13:07:19;;;;;;;7.75;3.80;;;23.00;99.90;;;;;;4914740;29;20020;-62
2024/02/08 13:09:46;;;;;;;8.32;3.70;;;23.00;99.90;;;;;;4915732;29;20055;-59
2024/02/08 13:12:20;;;;;;;10.13;4.37;;;23.00;99.90;;;;;;4916527;29;20024;-62
2024/02/08 13:14:49;;;;;;;6.72;3.83;;;23.00;99.90;;;;;;4912347;29;20032;-63
2024/02/08 13:17:23;;;;;;;8.45;3.85;;;23.00;99.90;;;;;;4916785;29;20103;-62
2024/02/08 13:19:55;;;;;;;9.68;4.25;;;23.00;99.90;;;;;;4913724;29;20029;-60
2024/02/08 13:22:24;;;;;;;8.30;3.28;;;23.00;99.90;;;;;;4931673;29;20031;-60
2024/02/08 13:24:53;;;;;;;9.27;4.35;;;23.00;99.90;;;;;;4916013;29;20463;-61
2024/02/08 13:27:24;;;;;;;12.95;4.03;;;23.00;99.90;;;;;;4916809;29;20028;-61
2024/02/08 13:29:52;;;;;;;10.93;4.50;;;23.00;99.90;;;;;;4915628;29;20425;-62
2024/02/08 13:32:18;;;;;;;11.52;4.50;;;23.00;99.90;;;;;;4915102;29;20036;-62
2024/02/08 13:34:43;;;;;;;7.57;3.85;;;23.00;99.90;;;;;;4915157;29;20036;-62
2024/02/08 13:37:15;;;;;;;12.23;3.95;;;23.00;99.90;;;;;;4902591;29;20142;-61
2024/02/08 13:39:44;;;;;;;12.25;5.65;;;23.00;99.90;;;;;;4903079;29;20020;-61
2024/02/08 13:42:12;;;;;;;11.57;6.07;;;23.00;99.90;;;;;;4896459;29;20065;-61
2024/02/08 13:44:39;;;;;;;9.85;4.80;;;23.00;99.90;;;;;;4897432;29;20092;-61
2024/02/08 13:47:05;;;;;;;9.63;5.38;;;23.00;99.90;;;;;;4897383;29;20088;-62
2024/02/08 13:49:32;;;;;;;15.82;5.45;;;23.00;99.90;;;;;;4913495;29;20052;-62
2024/02/08 13:51:59;;;;;;;11.77;5.80;;;23.00;99.90;;;;;;4916192;29;20020;-61
2024/02/08 13:54:27;;;;;;;10.43;6.07;;;23.00;99.90;;;;;;4916235;29;20032;-61
2024/02/08 13:56:55;;;;;;;16.08;7.35;;;23.00;99.90;;;;;;4913437;29;20636;-62
2024/02/08 13:59:22;;;;;;;14.25;6.43;;;23.00;99.90;;;;;;4906919;29;20435;-61
2024/02/08 14:01:47;;;;;;;18.43;6.90;;;23.00;99.90;;;;;;4916739;29;20131;-61
2024/02/08 14:04:20;;;;;;;17.90;7.10;;;23.00;99.90;;;;;;4932067;29;20118;-61
2024/02/08 14:06:55;;;;;;;13.02;5.75;;;23.00;99.90;;;;;;4934777;29;20134;-63
2024/02/08 14:09:25;;;;;;;11.48;5.95;;;23.00;99.90;;;;;;4932829;29;20048;-63
2024/02/08 14:11:58;;;;;;;12.18;6.05;;;23.10;99.90;;;;;;4916837;29;20112;-64
2024/02/08 14:14:40;;;;;;;14.10;5.85;;;23.00;99.90;;;;;;4923436;29;20020;-65
2024/02/08 14:17:10;;;;;;;9.68;5.20;;;23.00;99.90;;;;;;4932711;29;20016;-65
2024/02/08 14:19:37;;;;;;;12.05;5.45;;;23.00;99.90;;;;;;4934903;29;20423;-61
2024/02/08 14:22:06;;;;;;;11.98;5.15;;;23.00;99.90;;;;;;4934656;29;20099;-62
2024/02/08 14:24:39;;;;;;;9.18;4.53;;;23.00;99.90;;;;;;4934616;29;20047;-61
2024/02/08 14:27:09;;;;;;;12.50;5.03;;;23.00;99.90;;;;;;4934603;29;20055;-61
2024/02/08 14:29:35;;;;;;;13.38;5.43;;;23.00;99.90;;;;;;4924312;29;20412;-61
2024/02/08 14:32:04;;;;;;;9.82;4.55;;;23.00;99.90;;;;;;4925275;29;20027;-61
2024/02/08 14:34:36;;;;;;;15.20;4.28;;;23.10;99.90;;;;;;4924833;29;20066;-60
2024/02/08 14:37:09;;;;;;;11.82;4.82;;;23.00;99.90;;;;;;4925399;29;20053;-61
2024/02/08 14:39:35;;;;;;;13.05;4.88;;;23.00;99.90;;;;;;4929094;29;20023;-63
2024/02/08 14:42:10;;;;;;;8.63;4.40;;;23.00;99.90;;;;;;4934711;29;20102;-62
2024/02/08 14:44:41;;;;;;;11.93;4.63;;;23.00;99.90;;;;;;4921161;29;20028;-64
2024/02/08 14:47:08;;;;;;;11.73;5.55;;;23.00;99.90;;;;;;4926102;29;20043;-61
2024/02/08 14:49:54;;;;;;;9.95;5.15;;;23.00;99.90;;;;;;4935867;29;20106;-63
2024/02/08 14:52:34;;;;;;;12.13;4.90;;;23.00;99.90;;;;;;4938084;29;20027;-60
2024/02/08 14:55:19;;;;;;;12.45;5.03;;;23.00;99.90;;;;;;4938525;29;20031;-65
2024/02/08 14:57:52;;;;;;;16.15;5.57;;;23.00;99.90;;;;;;4928193;29;20021;-67
2024/02/08 15:03:07;;;;;;;11.27;4.07;;;23.00;99.90;;;;;;4934334;29;20107;-62
2024/02/08 15:05:45;;;;;;;9.27;5.32;;;22.90;99.90;;;;;;4937865;29;20365;-63
2024/02/08 15:11:02;;;;;;;11.10;4.65;;;23.00;99.90;;;;;;4937978;29;20361;-62
2024/02/08 15:13:38;;;;;;;12.52;5.63;;;23.00;99.90;;;;;;4935709;29;20023;-62
2024/02/08 15:16:07;;;;;;;19.88;7.25;;;22.90;99.90;;;;;;4921305;29;20035;-62
2024/02/08 15:18:38;;;;;;;41.55;11.73;;;22.90;99.90;;;;;;4938578;29;20028;-61